Date,TemperatureHighF,TemperatureAvgF,TemperatureLowF,DewpointHighF,DewpointAvgF,DewpointLowF,HumidityHigh,HumidityAvg,HumidityLow,PressureMaxIn,PressureMinIn,WindSpeedMaxMPH,WindSpeedAvgMPH,GustSpeedMaxMPH,PrecipitationSumIn
2013-1-30,63,57,51,54,52,49,93,84,69,29.66,29.28,9,2,18,0.35
2013-1-31,51,32,23,49,18,7,94,58,44,29.59,29.07,12,6,29,0.86
2013-2-1,22,19,15,15,8,3,86,62,50,30.12,29.59,10,5,23,0.01
2013-2-2,24,17,13,11,7,3,81,63,42,30.19,30.01,6,2,14,0.00
2013-2-3,25,18,12,18,12,9,89,79,59,30.02,29.77,2,0,7,0.00
2013-2-4,20,17,14,14,8,4,89,69,49,29.92,29.76,9,3,21,0.00
2013-2-5,28,21,16,18,14,10,84,75,60,29.97,29.86,4,1,11,0.00
2013-2-6,30,24,15,20,13,-1,87,63,41,30.33,29.87,10,3,22,0.00
2013-2-7,31,20,10,11,6,4,80,57,40,30.48,30.32,8,1,17,0.00
2013-2-8,27,24,21,24,20,11,91,84,63,30.34,29.78,6,3,17,0.00
2013-2-9,21,18,11,19,11,4,92,76,50,30.34,29.79,11,6,26,0.00
2013-2-10,40,20,2,12,4,-3,83,56,18,30.49,30.24,5,1,14,0.18
2013-2-11,49,39,32,41,29,1,91,69,23,30.24,29.60,11,4,28,0.17
2013-2-12,35,32,29,29,24,18,78,71,64,29.90,29.63,12,6,32,0.03
2013-2-13,42,32,28,23,20,18,73,64,43,29.88,29.69,7,1,18,0.00
2013-2-14,43,30,21,26,21,17,85,69,43,29.93,29.68,5,1,13,0.00
2013-2-15,47,39,29,29,25,21,92,60,43,29.94,29.86,6,2,15,0.00
2013-2-16,29,24,20,27,17,9,92,74,60,29.94,29.80,5,3,14,0.01
2013-2-17,20,15,9,12,3,-1,70,59,43,29.91,29.66,16,8,31,0.01
2013-2-18,27,15,7,9,3,-1,75,60,37,30.20,29.91,10,5,27,0.01
2013-2-19,42,30,16,32,22,8,92,74,43,30.15,29.61,10,3,28,0.08
2013-2-20,29,22,18,26,12,5,90,66,49,29.88,29.64,13,6,28,0.05
2013-2-21,21,18,16,12,10,8,82,71,61,30.38,29.87,13,7,24,0.00
2013-2-22,35,25,16,22,18,12,85,73,55,30.42,30.22,6,2,15,0.00
2013-2-23,38,34,29,33,30,22,93,85,76,30.22,29.83,9,4,19,0.00
2013-2-24,35,32,26,33,28,20,96,87,69,29.95,29.74,8,3,19,0.02
2013-2-25,36,31,27,27,24,21,88,78,63,30.22,29.95,6,2,13,0.01
2013-2-26,38,29,18,27,23,16,92,77,59,30.28,29.98,5,2,13,0.00
2013-2-27,37,33,27,35,31,25,96,93,91,29.98,29.51,5,2,14,1.04
2013-2-28,40,35,32,35,31,28,97,88,68,29.59,29.52,4,1,11,0.50
2013-3-1,35,31,27,28,26,22,86,81,69,29.76,29.58,9,4,20,0.02
2013-3-2,29,25,21,22,20,15,84,81,73,29.76,29.70,8,4,17,0.01
2013-3-3,26,21,17,20,15,12,83,78,73,29.77,29.69,7,4,17,0.00
2013-3-4,27,23,20,20,17,15,87,79,69,29.91,29.76,12,6,26,0.01
2013-3-5,39,29,24,26,23,20,87,77,56,30.04,29.91,7,3,15,0.01
2013-3-6,35,32,29,30,26,22,86,78,69,30.06,29.96,8,2,18,0.01
2013-3-7,31,29,27,27,24,21,94,82,70,30.11,30.03,6,2,16,0.02
2013-3-8,38,29,25,33,26,23,96,89,76,30.27,30.05,6,4,15,0.12
2013-3-9,51,32,16,28,22,14,92,71,28,30.34,30.26,4,2,12,0.34
2013-3-10,53,36,17,30,22,14,90,61,33,30.34,30.17,5,1,14,0.02
2013-3-11,51,45,39,41,29,21,89,55,31,30.19,29.96,10,3,22,0.01
2013-3-12,51,45,35,48,42,31,94,90,83,29.97,29.62,8,3,19,1.97
2013-3-13,40,34,29,31,25,19,90,72,45,29.81,29.75,6,3,16,0.01
2013-3-14,28,22,17,23,11,7,82,63,53,29.89,29.78,12,6,27,0.00
2013-3-15,33,27,19,26,16,7,83,65,47,29.92,29.67,11,4,21,0.00
2013-3-16,33,27,19,25,16,8,83,64,36,29.89,29.73,11,2,24,0.00
2013-3-17,29,23,16,17,10,5,78,58,36,30.31,29.88,9,4,22,0.00
2013-3-18,33,21,9,22,10,2,91,66,28,30.41,30.02,6,2,16,0.00
2013-3-19,37,30,24,33,27,21,94,91,85,30.03,29.67,8,3,20,0.19
2013-3-20,33,26,22,22,18,14,88,71,49,29.80,29.74,9,3,19,0.02
2013-3-21,33,22,8,21,11,4,88,66,35,29.79,29.62,6,2,18,0.02
2013-3-22,31,24,15,22,17,11,90,74,62,29.82,29.67,10,4,22,0.01
2013-3-23,35,30,26,24,19,15,88,66,47,29.89,29.76,11,6,27,0.01
2013-3-24,39,31,26,23,20,18,75,64,46,29.90,29.74,8,4,16,0.01
2013-3-25,38,32,27,25,23,21,82,68,52,29.75,29.49,7,1,15,0.00
2013-3-26,39,34,30,30,25,19,89,71,47,29.85,29.59,7,2,16,0.00
2013-3-27,44,34,21,27,22,18,90,64,38,29.95,29.84,9,3,19,0.00
2013-3-28,39,35,31,31,28,26,85,77,68,30.11,29.93,7,3,15,0.00
2013-3-29,42,36,28,29,27,25,88,71,54,30.13,30.06,6,2,15,0.00
2013-3-30,50,39,28,29,24,18,90,61,30,30.13,30.05,6,2,15,0.00
2013-3-31,50,37,23,36,26,-100,92,70,39,30.11,29.68,5,2,17,0.37
2013-4-1,50,37,25,40,30,12,96,75,44,29.83,29.55,10,4,24,0.39
2013-4-2,32,26,22,17,12,8,70,54,38,30.00,29.81,11,6,29,0.01
2013-4-3,34,27,22,19,15,11,88,60,42,30.27,29.98,11,6,29,0.00
2013-4-4,53,37,21,21,16,11,79,47,23,30.34,29.98,9,2,17,0.00
2013-4-5,49,40,28,23,18,5,67,43,21,29.98,29.73,11,4,24,0.00
2013-4-6,46,33,23,20,10,-1,76,42,18,30.28,29.94,10,4,21,0.00
2013-4-7,56,46,30,38,24,13,58,42,30,30.25,29.89,11,4,28,0.00
2013-4-8,65,51,37,43,36,33,87,58,35,30.05,29.91,8,2,16,0.00
2013-4-9,64,58,50,48,43,38,77,57,39,29.96,29.82,11,3,24,0.00
2013-4-10,59,51,45,51,47,40,96,86,67,29.96,29.76,6,1,13,0.51
2013-4-11,49,40,32,47,34,22,95,82,52,30.07,29.81,4,1,13,0.25
2013-4-12,37,35,33,35,33,31,95,93,86,30.04,29.73,9,3,23,0.54
2013-4-13,49,41,34,35,33,30,97,75,53,29.91,29.78,6,2,14,0.04
2013-4-14,43,38,28,33,27,24,90,66,47,30.22,29.89,7,2,20,0.01
2013-4-15,61,44,27,36,29,24,91,60,36,30.32,30.21,5,2,16,0.00
2013-4-16,60,53,44,53,44,29,82,71,55,30.28,30.01,9,3,24,0.21
2013-4-17,59,49,38,53,35,28,91,63,33,30.29,30.06,7,3,16,0.08
2013-4-18,59,47,33,49,36,30,92,68,42,30.29,30.03,10,4,25,0.00
2013-4-19,67,60,52,60,55,48,92,83,71,30.03,29.52,9,4,25,1.10
2013-4-20,51,42,31,48,30,18,94,65,41,30.26,29.60,9,4,21,1.41
2013-4-21,47,35,27,25,19,15,77,53,31,30.63,30.26,8,4,21,0.01
2013-4-22,53,40,27,30,24,18,84,55,29,30.66,30.47,6,2,19,0.00
2013-4-23,50,39,30,39,32,25,90,77,65,30.47,30.13,4,1,11,0.00
2013-4-24,71,52,30,50,39,28,96,67,37,30.13,29.72,6,1,15,0.00
2013-4-25,61,46,35,51,29,22,80,55,25,30.24,29.73,10,4,26,0.02
2013-4-26,57,42,29,34,28,26,90,62,31,30.42,30.24,6,2,13,0.00
2013-4-27,64,46,27,36,28,17,90,55,24,30.44,30.27,6,1,17,0.00
2013-4-28,70,53,32,39,33,-100,89,53,27,30.29,30.09,7,1,13,0.00
2013-4-29,54,50,47,45,40,32,88,71,45,30.17,30.11,10,4,25,0.04
2013-4-30,69,56,49,45,41,28,82,59,30,30.26,30.15,8,2,18,0.01
2013-5-1,72,56,35,38,33,25,89,50,18,30.41,30.25,4,1,11,0.00
2013-5-2,77,58,35,42,36,32,90,51,22,30.41,30.26,4,1,11,0.00
2013-5-3,67,57,45,43,34,25,72,43,20,30.38,30.27,5,2,12,0.00
2013-5-4,72,56,36,43,38,33,91,57,28,30.31,30.16,5,1,12,0.00
2013-5-5,70,56,36,42,31,16,87,47,13,30.22,30.12,5,1,11,0.00
2013-5-6,73,55,32,47,37,30,92,56,24,30.19,30.06,5,1,11,0.00
2013-5-7,76,60,40,53,45,38,93,62,29,30.12,30.01,4,1,10,0.00
2013-5-8,61,59,54,58,55,51,95,87,73,30.07,29.91,4,1,11,0.48
2013-5-9,64,55,48,55,51,47,97,86,60,29.95,29.84,3,0,7,0.13
2013-5-10,75,59,44,57,47,-100,98,72,36,29.96,29.81,4,1,11,0.06
2013-5-11,66,60,54,59,55,51,92,85,62,29.83,29.62,4,1,15,0.54
2013-5-12,56,50,41,51,37,-100,92,67,31,29.82,29.61,8,3,19,0.12
2013-5-13,44,40,32,29,26,23,85,59,50,30.07,29.82,8,3,19,0.00
2013-5-14,53,41,28,31,26,18,93,60,28,30.11,30.01,6,2,13,0.00
2013-5-15,68,48,29,54,39,26,91,72,51,30.05,29.60,11,3,29,0.05
2013-5-16,75,59,52,47,17,-100,78,36,23,29.79,29.66,10,4,22,0.04
2013-5-17,65,54,44,42,32,-100,85,54,34,30.19,29.80,8,3,17,0.00
2013-5-18,67,53,35,46,40,33,94,67,35,30.27,30.19,7,1,15,0.00
2013-5-19,56,53,47,52,49,43,90,86,81,30.24,30.10,8,3,17,0.00
2013-5-20,82,66,52,65,58,50,96,77,43,30.10,29.89,5,1,18,0.00
2013-5-21,88,71,53,66,59,51,96,70,36,29.93,29.73,6,1,14,0.00
2013-5-22,82,72,61,69,64,58,95,78,55,29.79,29.72,6,1,16,0.55
2013-5-23,74,68,60,64,59,51,95,74,44,29.77,29.67,8,2,20,0.60
2013-5-24,61,48,37,59,46,35,97,94,88,29.96,29.60,7,4,17,1.12
2013-5-25,41,39,36,39,37,35,95,93,91,29.96,29.90,11,6,23,1.04
2013-5-26,54,45,36,39,37,33,93,75,48,30.15,29.87,13,6,30,0.31
2013-5-27,68,50,30,42,34,29,96,62,25,30.21,30.11,9,2,18,0.01
2013-5-28,64,50,35,53,42,33,95,77,35,30.20,30.08,5,1,13,0.06
2013-5-29,81,66,54,65,60,52,97,82,54,30.09,29.91,8,1,27,1.89
2013-5-30,86,70,55,69,61,54,98,76,43,30.07,30.01,6,1,14,1.27
2013-5-31,89,73,55,66,59,54,95,67,34,30.09,29.91,5,1,12,0.00
2013-6-1,87,75,57,66,60,55,94,64,39,29.94,29.80,9,1,16,0.00
2013-6-3,70,63,49,60,52,44,92,68,48,29.87,29.78,7,3,15,0.13
2013-6-4,67,55,45,44,38,31,84,57,27,30.11,29.87,9,4,23,0.00
2013-6-5,73,56,37,48,42,35,94,62,28,30.18,30.05,5,1,13,0.00
2013-6-6,67,57,50,52,47,36,90,73,37,30.10,29.96,5,1,16,0.26
2013-6-7,56,54,53,55,52,50,96,93,87,29.97,29.72,7,3,17,0.99
2013-6-8,70,59,52,58,54,51,97,85,60,30.02,29.66,5,2,14,0.81
2013-6-9,75,61,47,58,52,46,98,74,44,30.16,30.02,6,1,12,0.01
2013-6-10,60,56,49,59,55,47,96,94,91,30.16,29.82,5,1,13,1.11
2013-6-11,70,61,57,64,58,53,97,90,70,29.83,29.55,7,2,19,0.96
2013-6-12,67,59,50,54,51,48,94,76,53,29.83,29.61,9,4,26,0.02
2013-6-13,55,51,46,54,50,45,96,95,93,29.81,29.57,6,1,15,1.61
2013-6-14,68,55,48,56,51,45,96,88,56,29.86,29.62,5,2,12,0.85
2013-6-15,73,60,45,54,47,43,97,68,37,29.97,29.88,7,2,16,0.01
2013-6-16,71,59,44,60,52,42,95,78,49,29.95,29.69,6,1,18,0.00
2013-6-17,80,65,53,62,56,50,97,77,36,29.88,29.77,10,1,35,0.23
2013-6-18,72,60,52,63,55,45,97,86,65,29.91,29.83,4,1,12,0.43
2013-6-19,70,57,45,50,44,40,97,67,35,30.16,29.91,6,2,14,0.31
2013-6-20,77,57,40,52,45,38,95,70,35,30.24,30.15,5,1,14,0.00
2013-6-22,83,78,70,63,59,55,79,53,39,30.17,30.04,5,2,11,0.00
2013-6-23,88,78,66,67,64,59,89,63,40,30.09,29.94,7,2,13,0.01
2013-6-24,87,72,62,68,64,60,95,78,49,29.98,29.88,5,1,16,0.15
2013-6-25,86,72,57,68,63,56,97,75,44,29.96,29.73,6,1,16,0.18
2013-6-26,80,71,62,67,64,60,95,81,60,29.78,29.72,6,1,13,0.02
2013-6-27,80,68,58,68,63,57,97,83,58,29.79,29.50,4,0,9,0.42
2013-6-28,79,72,66,66,63,61,96,75,57,29.50,29.34,5,2,19,2.12
2013-6-29,78,68,58,63,60,56,96,76,49,29.64,29.43,4,1,14,0.01
2013-6-30,83,68,58,67,62,56,95,82,53,29.87,29.64,5,1,11,0.14
2013-7-1,76,67,61,68,64,60,98,91,75,29.97,29.86,5,1,11,0.55
2013-7-2,80,72,66,70,68,65,98,86,68,30.08,29.96,4,1,12,0.35
2013-7-3,85,75,68,71,67,64,92,77,60,30.14,30.06,6,1,13,0.04
2013-7-4,86,77,64,71,67,63,96,73,54,30.16,30.05,4,1,12,0.00
2013-7-5,89,80,71,70,66,-100,89,68,47,30.11,29.98,5,2,14,0.00
2013-7-6,85,78,71,69,67,65,89,71,54,30.04,29.96,6,2,15,0.00
2013-7-7,89,78,64,72,68,63,96,73,46,30.00,29.84,4,1,13,0.00
2013-7-8,84,72,67,70,65,-100,94,81,54,29.99,29.88,5,1,11,0.04
2013-7-9,83,73,64,70,66,63,97,80,51,30.02,29.92,4,1,10,0.04
2013-7-10,82,72,66,72,65,-100,94,81,65,29.93,29.73,6,1,13,0.10
2013-7-11,79,72,62,68,62,54,93,72,47,29.93,29.71,5,2,17,0.04
2013-7-12,77,68,57,63,59,54,92,75,58,30.11,29.93,5,1,11,0.00
2013-7-13,78,67,60,70,63,57,96,88,72,30.26,30.11,3,1,7,0.18
2013-7-14,84,73,63,74,68,62,97,83,61,30.29,30.18,3,0,8,0.02
2013-7-15,86,75,65,71,66,64,97,77,48,30.21,30.11,6,2,14,0.00
2013-7-16,88,74,60,70,64,59,96,73,42,30.19,30.11,6,1,12,0.00
2013-7-17,91,76,62,70,65,61,96,73,40,30.18,30.00,4,1,11,0.00
2013-7-18,90,77,67,74,69,65,96,78,47,30.01,29.91,5,1,12,0.01
2013-7-19,91,79,64,72,67,63,96,70,45,29.92,29.70,7,2,18,0.01
2013-7-20,84,74,63,70,64,-100,89,72,55,29.80,29.65,6,2,15,0.01
2013-7-21,81,68,55,65,60,53,94,76,49,29.94,29.80,3,0,10,0.01
2013-7-22,82,69,60,68,62,56,95,79,45,29.94,29.78,5,1,11,0.60
2013-7-23,80,70,63,70,66,61,98,86,63,29.78,29.51,4,1,12,1.69
2013-7-24,71,63,53,63,56,49,97,80,56,29.96,29.58,7,2,16,0.02
2013-7-25,72,60,48,56,50,45,91,73,54,30.05,29.96,4,2,11,0.01
2013-7-26,78,62,52,61,55,50,96,79,47,30.04,29.96,5,1,10,0.00
2013-7-27,79,67,49,61,56,48,96,70,49,30.02,29.90,6,1,13,0.00
2013-7-28,70,66,62,66,62,58,94,85,75,29.92,29.87,6,1,13,0.33
2013-7-29,78,67,56,63,58,51,97,77,42,30.07,29.90,5,1,11,0.03
2013-7-30,73,60,49,58,53,48,96,81,54,30.14,30.06,4,1,11,0.00
2013-7-31,76,64,51,61,55,50,97,76,51,30.14,29.99,2,0,7,0.00
2013-8-1,68,62,56,63,59,54,98,90,80,30.00,29.79,7,1,19,0.16
2013-8-2,77,64,56,61,57,52,98,80,45,29.86,29.78,5,2,13,0.16
2013-8-3,76,65,54,58,54,49,97,72,42,29.85,29.78,5,2,14,0.13
2013-8-4,70,59,49,56,51,48,96,76,47,29.94,29.82,9,3,20,0.02
2013-8-5,71,60,50,52,47,41,91,67,37,30.03,29.93,7,2,17,0.02
2013-8-6,74,60,42,56,49,40,95,70,45,30.09,30.03,5,1,12,0.00
2013-8-7,67,64,59,63,59,55,92,85,74,30.08,29.99,6,2,15,0.04
2013-8-8,80,70,61,68,65,60,97,84,66,30.00,29.91,5,1,15,0.05
2013-8-9,76,70,68,72,68,66,97,93,81,29.91,29.74,3,0,11,2.11
2013-8-10,75,65,53,67,56,50,96,75,46,30.02,29.81,7,3,19,0.01
2013-8-11,74,60,45,60,52,44,96,75,47,30.09,29.99,3,1,12,0.01
2013-8-12,75,63,52,64,56,51,96,78,50,30.03,29.89,3,0,7,0.01
2013-8-13,77,64,58,64,59,-100,95,85,63,29.89,29.63,5,1,15,0.22
2013-8-14,65,56,50,56,48,-100,89,75,58,29.99,29.72,9,4,24,0.03
2013-8-15,69,52,44,55,37,-100,96,74,47,30.12,29.99,6,2,13,0.01
2013-8-16,73,58,46,57,47,-100,96,75,45,30.20,30.11,4,1,11,0.00
2013-8-17,75,60,47,59,52,46,97,78,46,30.27,30.20,3,0,9,0.00
2013-8-18,71,60,51,60,54,-100,96,83,61,30.25,30.10,2,0,5,2.95
2013-8-19,76,59,53,62,46,-100,96,80,52,30.10,29.99,5,1,11,0.00
2013-8-20,81,63,50,63,54,-100,97,77,43,30.12,30.03,6,1,13,0.00
2013-8-21,83,65,50,64,56,49,96,76,41,30.16,30.01,3,0,10,0.00
2013-8-22,84,70,54,66,59,53,95,73,43,30.03,29.81,5,1,11,0.00
2013-8-23,74,66,55,63,56,50,92,73,46,30.12,29.85,6,2,14,0.00
2013-8-24,77,59,43,55,49,42,95,72,34,30.33,30.12,4,1,9,0.00
2013-8-25,79,59,44,58,48,-100,96,73,37,30.37,30.16,4,1,10,0.00
2013-8-26,73,67,60,67,62,54,96,84,66,30.17,29.85,5,1,14,0.38
2013-8-27,78,67,64,67,64,63,97,90,66,29.89,29.80,4,2,10,0.65
2013-8-28,83,74,63,68,65,61,96,75,59,29.89,29.80,3,1,9,0.00
2013-8-29,79,67,60,67,62,59,98,87,63,29.98,29.88,2,0,8,0.00
2013-8-30,83,68,57,67,60,56,98,80,46,29.97,29.79,3,0,9,0.01
2013-8-31,84,72,65,70,66,62,96,84,57,29.79,29.68,6,1,13,0.19
2013-9-1,78,68,62,71,64,-100,98,91,75,29.80,29.75,3,0,8,0.36
2013-9-2,77,69,63,69,66,61,98,91,75,29.77,29.62,6,1,15,0.26
2013-9-3,72,63,57,62,57,53,98,83,53,29.83,29.69,7,1,13,0.14
2013-9-4,76,64,54,57,53,48,93,70,42,29.93,29.83,6,2,15,0.00
2013-9-5,66,57,45,57,47,36,97,72,35,30.15,29.87,8,2,19,0.01
2013-9-6,67,50,37,47,40,35,97,74,35,30.24,30.11,4,1,9,0.01
2013-9-7,75,55,40,58,47,38,95,80,33,30.12,29.86,3,0,8,0.02
2013-9-8,66,58,45,60,49,-100,95,76,44,30.09,29.78,10,3,22,0.04
2013-9-9,71,54,35,55,44,33,95,72,41,30.21,30.08,4,1,17,0.01
2013-9-10,84,72,64,70,65,56,93,79,63,30.07,29.96,5,2,13,0.24
2013-9-11,92,80,67,73,69,66,95,73,47,30.03,29.90,5,1,11,0.02
2013-9-12,82,71,62,71,66,61,97,84,63,29.82,29.63,4,1,13,0.76
2013-9-13,64,58,49,61,53,-100,97,89,73,29.83,29.58,7,3,17,0.25
2013-9-14,56,50,42,45,43,40,93,79,64,30.10,29.83,6,3,15,0.01
2013-9-15,68,46,37,53,41,-100,98,86,39,30.19,30.05,2,0,6,0.01
2013-9-16,59,53,45,51,48,39,96,85,72,30.26,30.02,6,2,13,0.07
2013-9-17,61,46,35,43,38,33,95,74,40,30.43,30.26,5,1,10,0.02
2013-9-18,45,35,32,39,33,30,95,93,85,30.35,30.17,1,0,2,0.00
2013-9-19,77,55,37,56,46,35,95,75,41,30.17,30.02,2,0,7,0.00
2013-9-20,78,57,40,57,48,38,95,75,34,30.08,29.92,4,1,10,0.00
2013-9-21,69,62,54,60,55,48,93,78,54,29.93,29.59,9,3,23,0.44
2013-9-22,58,52,46,56,44,-100,96,77,60,29.87,29.59,9,4,21,0.49
2013-9-23,56,47,39,41,38,35,90,72,53,30.05,29.87,9,5,18,0.00
2013-9-24,66,51,41,42,38,34,86,64,30,30.05,29.88,9,4,18,0.00
2013-9-25,69,52,36,50,43,34,96,75,45,29.96,29.86,5,1,12,0.00
2013-9-26,64,50,41,50,44,39,97,83,53,30.13,29.96,6,1,13,0.00
2013-9-27,63,50,40,51,45,38,97,85,63,30.27,30.13,4,1,10,0.00
2013-9-28,71,53,40,50,44,38,97,77,41,30.34,30.24,3,0,9,0.01
2013-9-29,71,52,39,53,44,-100,97,79,50,30.24,30.05,3,0,9,0.01
2013-9-30,71,53,39,53,46,37,97,79,46,30.08,29.95,3,0,8,0.00
2013-10-1,55,50,44,52,48,42,93,91,88,29.99,29.93,0,0,2,0.01
2013-10-2,75,58,42,60,50,41,97,78,53,30.00,29.90,7,2,16,0.01
2013-10-3,74,55,42,49,44,34,94,70,23,30.09,30.00,4,1,9,0.00
2013-10-4,75,61,50,63,56,47,96,86,64,30.04,29.95,4,0,10,0.32
2013-10-5,73,64,60,64,61,58,98,90,67,30.03,29.97,3,0,8,0.32
2013-10-6,66,62,59,61,59,56,96,91,80,30.03,29.97,11,3,19,0.12
2013-10-7,68,61,51,64,57,42,94,85,70,29.98,29.63,8,3,21,1.40
2013-10-8,62,51,39,43,41,37,93,68,43,30.35,29.89,7,3,18,0.01
2013-10-9,64,46,32,42,36,31,96,73,31,30.44,30.33,2,0,9,0.00
2013-10-10,59,45,35,43,38,31,95,79,38,30.33,30.16,3,0,5,0.00
2013-10-11,72,54,41,52,45,37,90,72,42,30.16,30.04,4,1,9,0.00
2013-10-12,70,51,34,52,44,32,95,79,52,30.29,30.13,6,2,14,0.00
2013-10-13,68,54,45,50,45,-100,95,76,45,30.35,30.28,4,1,12,0.00
2013-10-14,70,53,39,52,45,37,95,76,40,30.32,30.19,2,0,8,0.00
2013-10-15,70,59,51,55,52,46,95,78,55,30.24,30.06,3,1,10,0.00
2013-10-16,63,57,52,52,48,36,85,73,53,30.06,29.83,4,1,13,0.00
2013-10-17,72,61,54,57,50,40,92,70,33,29.83,29.55,7,2,15,0.08
2013-10-18,61,53,40,57,43,36,91,70,42,29.91,29.55,8,3,18,0.40
2013-10-19,60,46,34,46,38,32,95,76,43,29.94,29.69,5,1,15,0.07
2013-10-20,55,46,38,46,33,-100,90,64,43,30.01,29.68,8,3,19,0.07
2013-10-21,64,49,33,40,35,31,95,64,38,30.10,29.88,7,2,20,0.00
2013-10-22,56,49,34,44,39,31,90,68,52,29.89,29.67,7,2,16,0.00
2013-10-23,46,38,30,34,31,28,94,79,53,29.78,29.60,5,1,10,0.02
2013-10-24,44,38,31,34,27,23,93,68,45,29.91,29.71,8,2,19,0.02
2013-10-25,43,39,34,32,29,27,83,69,57,30.15,29.91,8,3,20,0.00
2013-10-26,49,42,34,31,26,23,80,55,38,30.15,29.80,8,3,26,0.00
2013-10-27,45,41,32,32,28,-100,85,62,49,30.06,29.78,8,4,18,0.00
2013-10-28,50,38,29,34,29,-100,90,74,52,30.33,30.05,8,2,16,0.00
2013-10-29,46,35,27,28,24,20,92,66,35,30.42,30.33,4,1,11,0.00
2013-10-30,57,42,31,43,36,26,95,80,53,30.33,30.15,4,1,9,0.02
2013-10-31,60,46,30,55,44,28,97,91,81,30.21,29.67,8,2,18,0.54
2013-11-1,64,59,46,58,48,40,91,70,49,29.68,29.39,9,3,25,0.95
2013-11-2,58,45,36,44,39,34,96,81,53,29.75,29.58,5,1,12,0.02
2013-11-3,44,33,26,40,27,-100,93,83,72,30.45,29.75,8,3,17,0.01
2013-11-4,40,28,18,22,18,15,91,66,38,30.66,30.45,4,1,9,0.01
2013-11-5,53,42,29,36,32,19,81,67,52,30.64,30.41,6,1,14,0.01
2013-11-6,58,49,40,48,41,36,87,75,58,30.43,29.94,6,2,19,0.00
2013-11-7,58,47,35,50,42,29,91,83,68,29.95,29.74,10,4,24,0.27
2013-11-8,37,34,32,30,27,23,90,75,60,30.13,29.83,10,5,24,0.01
2013-11-9,44,36,32,28,25,-100,79,65,51,30.22,29.90,7,2,21,0.00
2013-11-10,45,41,37,36,31,27,83,69,51,29.96,29.77,11,6,32,0.04
2013-11-11,46,40,33,32,26,21,89,61,38,30.12,29.91,13,4,33,0.01
2013-11-12,39,27,22,33,20,13,90,75,66,30.24,29.90,9,5,24,0.00
2013-11-13,30,24,18,18,14,11,76,66,50,30.35,30.17,9,4,18,0.00
2013-11-14,51,40,29,24,15,7,60,37,23,30.18,30.06,7,3,19,0.00
2013-11-15,61,41,26,26,20,10,73,48,14,30.18,30.08,2,0,10,0.00
2013-11-16,58,42,33,39,31,-100,91,67,30,30.29,30.18,7,1,16,0.00
2013-11-17,57,52,43,53,48,37,92,87,70,30.21,29.65,8,3,20,0.04
2013-11-18,59,52,39,54,39,26,91,63,38,29.70,29.46,11,4,25,0.49
2013-11-19,38,32,26,29,22,19,79,69,58,30.33,29.70,13,6,28,0.01
2013-11-20,40,26,18,19,14,5,84,64,24,30.62,30.33,5,2,13,0.00
2013-11-21,42,31,14,34,23,11,90,74,50,30.62,30.35,3,1,11,0.00
2013-11-22,49,44,38,44,40,34,96,88,77,30.35,29.86,7,1,18,0.10
2013-11-23,42,30,18,38,20,-100,91,71,49,29.99,29.83,10,5,25,0.02
2013-11-24,19,16,12,10,5,-2,78,63,41,30.29,29.91,14,8,33,0.00
2013-11-25,34,22,13,14,10,5,80,61,32,30.41,30.22,8,3,19,0.00
2013-11-26,39,32,27,37,26,6,94,82,33,30.25,29.85,6,2,21,0.82
2013-11-27,48,35,25,47,33,20,97,93,82,29.86,29.38,7,2,17,2.10
2013-11-28,25,19,14,21,13,11,90,77,62,30.44,29.60,7,1,17,0.01
2013-11-29,26,19,11,18,14,8,92,82,62,30.74,30.44,4,1,10,0.01
2013-11-30,31,18,6,24,10,-100,89,73,49,30.76,30.35,5,2,17,0.01
2013-12-1,42,34,29,32,28,24,92,77,61,30.35,29.99,6,1,19,0.03
2013-12-2,41,34,28,35,31,27,94,88,78,29.99,29.85,1,0,4,0.01
2013-12-3,45,33,26,36,30,25,95,88,69,30.00,29.87,4,1,12,0.01
2013-12-4,50,33,22,38,28,20,94,84,57,30.12,29.99,2,0,7,0.01
2013-12-5,56,50,44,52,46,41,94,88,80,30.09,29.89,8,3,22,0.07
2013-12-6,56,36,28,51,33,27,94,88,76,30.12,29.80,6,3,14,0.20
2013-12-7,31,26,21,27,20,-100,94,78,66,30.48,30.08,9,4,20,0.08
2013-12-8,26,22,17,19,16,13,87,78,66,30.58,30.39,3,1,9,0.01
2013-12-9,41,32,22,36,28,18,93,85,75,30.40,29.89,7,3,19,0.20
2013-12-10,34,27,21,28,21,11,91,78,64,29.98,29.79,7,2,14,0.01
2013-12-11,24,21,18,16,13,10,87,69,63,30.19,29.98,9,3,19,0.00
2013-12-12,18,15,10,13,6,3,82,67,53,30.29,30.03,8,2,19,0.00
2013-12-13,24,19,15,15,11,6,82,69,59,30.35,29.98,10,4,26,0.00
2013-12-14,17,14,11,15,9,-100,92,82,73,30.49,29.99,4,2,11,0.00
2013-12-15,28,24,17,25,20,15,93,86,72,29.99,29.55,8,3,21,0.00
2013-12-16,25,17,4,17,8,1,86,67,55,30.18,29.72,9,3,21,0.00
2013-12-17,24,12,-3,22,9,-7,92,88,82,30.21,29.98,4,0,12,0.00
2013-12-18,28,22,13,22,18,11,93,83,66,30.08,29.96,6,2,17,0.02
2013-12-19,42,33,23,28,24,15,87,68,54,30.09,29.93,10,3,30,0.22
2013-12-20,51,45,31,43,37,28,87,75,67,30.06,29.87,7,2,16,0.21
2013-12-21,58,52,48,52,46,-100,96,84,73,29.86,29.77,4,2,17,0.23
2013-12-22,66,61,55,57,52,48,90,72,59,29.85,29.64,9,4,23,0.19
2013-12-23,59,43,30,49,39,22,96,87,69,30.10,29.82,9,2,17,0.47
2013-12-24,29,24,13,23,17,6,86,76,62,30.28,30.07,8,3,18,0.01
2013-12-25,22,15,7,8,5,1,78,66,48,30.50,30.28,8,3,17,0.00
2013-12-26,29,24,19,24,16,8,84,70,54,30.39,30.10,8,3,20,0.00
2013-12-27,30,26,20,22,19,14,90,76,62,30.27,30.20,8,2,23,0.00
2013-12-28,45,33,24,29,24,-100,91,73,51,30.22,30.01,6,2,25,0.00
2013-12-29,44,32,27,37,30,25,96,91,56,30.02,29.54,4,1,11,0.55
2013-12-30,35,23,9,32,18,5,96,83,70,30.15,29.65,9,4,21,0.17
2013-12-31,22,15,8,16,10,5,89,80,66,30.20,29.99,12,2,22,0.01
2014-1-1,21,17,13,15,9,6,87,71,55,30.36,30.20,6,2,16,0.00
2014-1-2,17,14,5,14,11,1,89,86,81,30.29,29.81,4,1,11,0.00